Time;durP1;ratioP1;P1;durP2;ratioP2;P2;SDS_P1;SDS_P2;PMS_P1;PMS_P2;Temp;Humidity;BMP_temperature;BMP_pressure;BME280_temperature;BME280_humidity;BME280_pressure;Samples;Min_cycle;Max_cycle;Signal;HPM_P1;HPM_P2
2022/12/09 00:01:13;;;;;;;66.60;25.13;;;;;;;;;;5033784;28;20371;-76
2022/12/09 00:03:39;;;;;;;57.80;23.77;;;;;;;;;;5038785;28;20081;-77
2022/12/09 00:06:09;;;;;;;141.45;25.27;;;;;;;;;;5054670;28;20073;-75
2022/12/09 00:08:35;;;;;;;53.00;23.92;;;;;;;;;;5052978;28;20034;-75
2022/12/09 00:11:01;;;;;;;80.43;25.10;;;;;;;;;;5034689;28;20025;-76
2022/12/09 00:13:28;;;;;;;58.08;24.33;;;;;;;;;;5032829;28;20030;-76
2022/12/09 00:15:54;;;;;;;65.32;23.63;;;;;;;;;;5034154;28;20013;-77
2022/12/09 00:18:20;;;;;;;52.00;24.45;;;;;;;;;;5036319;28;20036;-76
2022/12/09 00:20:46;;;;;;;48.72;24.88;;;;;;;;;;5035615;28;20037;-77
2022/12/09 00:23:12;;;;;;;64.55;26.38;;;;;;;;;;5036392;28;20385;-77
2022/12/09 00:25:38;;;;;;;52.38;26.92;;;;;;;;;;5035569;28;20451;-75
2022/12/09 00:28:04;;;;;;;52.03;25.73;;;;;;;;;;5035366;28;20030;-76
2022/12/09 00:30:30;;;;;;;67.55;25.30;;;;;;;;;;5034270;28;20044;-77
2022/12/09 00:32:56;;;;;;;55.95;26.73;;;;;;;;;;5035030;28;20025;-76
2022/12/09 00:35:23;;;;;;;55.45;27.48;;;;;;;;;;5036410;28;20052;-77
2022/12/09 00:37:49;;;;;;;52.90;26.50;;;;;;;;;;5037854;28;20025;-76
2022/12/09 00:40:15;;;;;;;45.30;25.08;;;;;;;;;;5041189;28;20428;-77
2022/12/09 00:42:41;;;;;;;58.55;24.13;;;;;;;;;;5054069;28;20039;-76
2022/12/09 00:45:07;;;;;;;67.35;25.08;;;;;;;;;;5048892;28;20030;-77
2022/12/09 00:47:34;;;;;;;60.92;23.88;;;;;;;;;;5034251;28;20026;-77
2022/12/09 00:50:00;;;;;;;47.95;24.05;;;;;;;;;;5034089;28;20021;-77
2022/12/09 00:52:26;;;;;;;50.58;24.80;;;;;;;;;;5034852;28;20025;-77
2022/12/09 00:54:51;;;;;;;55.47;25.50;;;;;;;;;;5035308;28;20032;-76
2022/12/09 00:57:17;;;;;;;143.18;24.63;;;;;;;;;;5035435;28;20236;-77
2022/12/09 00:59:43;;;;;;;89.95;26.25;;;;;;;;;;5034557;28;20032;-77
2022/12/09 01:02:09;;;;;;;58.00;27.55;;;;;;;;;;5029944;28;20029;-77
2022/12/09 01:04:35;;;;;;;50.47;25.25;;;;;;;;;;5034309;28;20029;-76
2022/12/09 01:07:01;;;;;;;58.58;27.20;;;;;;;;;;5034288;28;20032;-76
2022/12/09 01:09:27;;;;;;;54.70;27.27;;;;;;;;;;5034919;28;20022;-78
2022/12/09 01:11:53;;;;;;;49.03;27.45;;;;;;;;;;5035321;28;20470;-77
2022/12/09 01:14:19;;;;;;;80.10;27.83;;;;;;;;;;5036020;28;20382;-77
2022/12/09 01:16:45;;;;;;;68.75;27.85;;;;;;;;;;5036198;28;20020;-77
2022/12/09 01:19:12;;;;;;;91.30;27.35;;;;;;;;;;5035478;28;20026;-76
2022/12/09 01:21:38;;;;;;;60.15;28.67;;;;;;;;;;5035089;28;20088;-77
2022/12/09 01:24:08;;;;;;;52.63;27.42;;;;;;;;;;5035821;28;20033;-77
2022/12/09 01:26:35;;;;;;;78.35;28.50;;;;;;;;;;5049052;28;20081;-76
2022/12/09 01:29:01;;;;;;;55.42;29.42;;;;;;;;;;5052487;28;20041;-77
2022/12/09 01:31:27;;;;;;;54.50;30.00;;;;;;;;;;5050191;28;20022;-76
2022/12/09 01:33:54;;;;;;;54.78;30.17;;;;;;;;;;5054633;28;20025;-76
2022/12/09 01:36:22;;;;;;;54.00;29.23;;;;;;;;;;5054957;28;20002;-75
2022/12/09 01:38:48;;;;;;;56.47;31.27;;;;;;;;;;5057193;28;20017;-77
2022/12/09 01:41:16;;;;;;;51.38;29.73;;;;;;;;;;5057796;28;20033;-76
2022/12/09 01:43:42;;;;;;;51.95;29.20;;;;;;;;;;5055395;28;20061;-76
2022/12/09 01:46:08;;;;;;;56.35;30.88;;;;;;;;;;5057341;28;20570;-77
2022/12/09 01:48:37;;;;;;;56.42;30.63;;;;;;;;;;5057604;28;20032;-77
2022/12/09 01:51:14;;;;;;;59.20;30.67;;;;;;;;;;5054498;28;20017;-76
2022/12/09 01:53:42;;;;;;;84.65;31.92;;;;;;;;;;5056218;28;20037;-77
2022/12/09 01:56:12;;;;;;;76.38;32.03;;;;;;;;;;5056179;28;20064;-76
2022/12/09 01:58:38;;;;;;;83.65;35.05;;;;;;;;;;5055577;28;20030;-77
2022/12/09 02:01:04;;;;;;;83.15;34.22;;;;;;;;;;5056104;28;20017;-76
2022/12/09 02:03:30;;;;;;;69.43;32.92;;;;;;;;;;5052624;28;20035;-76
2022/12/09 02:05:56;;;;;;;70.15;34.20;;;;;;;;;;5044779;28;20022;-75
2022/12/09 02:08:22;;;;;;;78.47;34.30;;;;;;;;;;5045283;28;20047;-76
2022/12/09 02:10:51;;;;;;;81.32;35.40;;;;;;;;;;5045552;28;20037;-75
2022/12/09 02:13:21;;;;;;;84.82;35.22;;;;;;;;;;5045025;28;20486;-76
2022/12/09 02:15:50;;;;;;;95.32;34.70;;;;;;;;;;5034175;28;20298;-76
2022/12/09 02:18:28;;;;;;;89.43;36.63;;;;;;;;;;5035150;28;20025;-75
2022/12/09 02:20:57;;;;;;;77.72;34.78;;;;;;;;;;5033942;28;20171;-76
2022/12/09 02:23:26;;;;;;;88.60;36.63;;;;;;;;;;5034470;28;20030;-77
2022/12/09 02:25:56;;;;;;;72.60;35.10;;;;;;;;;;5034314;28;20112;-76
2022/12/09 02:28:36;;;;;;;83.68;35.38;;;;;;;;;;5042737;28;20044;-76
2022/12/09 02:31:14;;;;;;;81.10;36.53;;;;;;;;;;5047287;28;20034;-75
2022/12/09 02:33:40;;;;;;;74.80;34.63;;;;;;;;;;5041359;28;20026;-76
2022/12/09 02:36:15;;;;;;;73.60;35.13;;;;;;;;;;5046179;28;20033;-76
2022/12/09 02:38:42;;;;;;;76.85;35.28;;;;;;;;;;5055054;28;20018;-77
2022/12/09 02:41:12;;;;;;;80.18;36.58;;;;;;;;;;5056681;28;20041;-77
2022/12/09 02:43:39;;;;;;;70.88;35.67;;;;;;;;;;5048566;28;20039;-77
2022/12/09 02:46:07;;;;;;;80.90;37.55;;;;;;;;;;5054089;28;20040;-77
2022/12/09 02:48:34;;;;;;;82.85;38.25;;;;;;;;;;5047230;28;20029;-76
2022/12/09 02:51:03;;;;;;;84.15;37.95;;;;;;;;;;5039005;28;20101;-76
2022/12/09 02:53:30;;;;;;;83.97;39.33;;;;;;;;;;5033351;28;20069;-76
2022/12/09 02:55:56;;;;;;;83.25;36.83;;;;;;;;;;5032027;28;20033;-76
2022/12/09 02:58:22;;;;;;;73.05;35.42;;;;;;;;;;5030915;28;20207;-76
2022/12/09 03:00:48;;;;;;;75.75;33.90;;;;;;;;;;5031756;28;20410;-76
2022/12/09 03:03:15;;;;;;;80.95;36.30;;;;;;;;;;5032839;28;20056;-76
2022/12/09 03:05:50;;;;;;;77.30;35.97;;;;;;;;;;5031541;28;20029;-76
2022/12/09 03:08:35;;;;;;;78.75;35.00;;;;;;;;;;5031749;28;20482;-76
2022/12/09 03:11:09;;;;;;;79.65;36.08;;;;;;;;;;5030521;28;20024;-76
2022/12/09 03:13:35;;;;;;;63.43;28.20;;;;;;;;;;5032381;28;20029;-77
2022/12/09 03:16:04;;;;;;;87.43;39.13;;;;;;;;;;5031921;28;20267;-76
2022/12/09 03:18:31;;;;;;;77.28;36.03;;;;;;;;;;5032401;28;20056;-77
2022/12/09 03:20:57;;;;;;;88.05;37.72;;;;;;;;;;5036477;28;20029;-77
2022/12/09 03:23:26;;;;;;;85.60;37.67;;;;;;;;;;5039282;28;20475;-76
2022/12/09 03:25:52;;;;;;;83.32;37.35;;;;;;;;;;5032682;28;20096;-76
2022/12/09 03:28:21;;;;;;;84.65;38.03;;;;;;;;;;5035184;28;20367;-76
2022/12/09 03:30:48;;;;;;;83.97;37.22;;;;;;;;;;5033898;28;20021;-75
2022/12/09 03:33:17;;;;;;;80.72;36.00;;;;;;;;;;5035241;28;20079;-77
2022/12/09 03:35:46;;;;;;;77.53;35.95;;;;;;;;;;5034835;28;20053;-76
2022/12/09 03:38:14;;;;;;;82.13;36.90;;;;;;;;;;5033886;28;20030;-75
2022/12/09 03:40:40;;;;;;;77.65;36.40;;;;;;;;;;5035067;28;20033;-76
2022/12/09 03:43:13;;;;;;;86.15;38.40;;;;;;;;;;5035434;28;20477;-76
2022/12/09 03:45:40;;;;;;;85.82;36.72;;;;;;;;;;5035646;28;20029;-76
2022/12/09 03:48:06;;;;;;;84.28;36.85;;;;;;;;;;5035134;28;20030;-77
2022/12/09 03:50:35;;;;;;;78.40;37.08;;;;;;;;;;5034792;28;20025;-77
2022/12/09 03:53:04;;;;;;;85.25;36.53;;;;;;;;;;5034692;28;20097;-76
2022/12/09 03:55:39;;;;;;;83.45;36.05;;;;;;;;;;5033287;28;20478;-75
2022/12/09 03:58:06;;;;;;;86.82;36.25;;;;;;;;;;5035282;28;20044;-75
2022/12/09 04:00:34;;;;;;;80.20;37.67;;;;;;;;;;5035024;28;20033;-78
2022/12/09 04:03:00;;;;;;;81.13;36.38;;;;;;;;;;5039856;28;20026;-77
2022/12/09 04:05:26;;;;;;;86.13;38.50;;;;;;;;;;5038199;28;20513;-78
2022/12/09 04:07:52;;;;;;;92.13;38.20;;;;;;;;;;5038958;28;20037;-77
2022/12/09 04:10:18;;;;;;;88.00;39.17;;;;;;;;;;5036205;28;20383;-79
2022/12/09 04:12:44;;;;;;;91.78;40.05;;;;;;;;;;5034365;28;20394;-79
2022/12/09 04:15:10;;;;;;;81.60;39.15;;;;;;;;;;5036275;28;20026;-76
2022/12/09 04:17:36;;;;;;;84.43;37.25;;;;;;;;;;5033565;28;20025;-78
2022/12/09 04:20:02;;;;;;;80.40;37.42;;;;;;;;;;5035800;28;20037;-76
2022/12/09 04:22:30;;;;;;;82.45;37.55;;;;;;;;;;5039220;28;20037;-76
2022/12/09 04:24:56;;;;;;;79.97;37.63;;;;;;;;;;5044667;28;20044;-76
2022/12/09 04:27:22;;;;;;;81.13;36.33;;;;;;;;;;5044505;28;20033;-77
2022/12/09 04:29:47;;;;;;;80.07;37.28;;;;;;;;;;5050869;28;20128;-77
2022/12/09 04:32:13;;;;;;;79.20;36.58;;;;;;;;;;5056154;28;20014;-79
2022/12/09 04:34:39;;;;;;;80.63;38.53;;;;;;;;;;5041725;28;20029;-77
2022/12/09 04:37:05;;;;;;;75.05;36.58;;;;;;;;;;5038076;28;20411;-77
2022/12/09 04:39:31;;;;;;;79.10;36.50;;;;;;;;;;5035767;28;20025;-76
2022/12/09 04:41:57;;;;;;;80.53;37.95;;;;;;;;;;5035508;28;20029;-78
2022/12/09 04:44:23;;;;;;;78.50;37.00;;;;;;;;;;5051919;28;20104;-78
2022/12/09 04:46:49;;;;;;;81.75;38.33;;;;;;;;;;5056092;28;20013;-77
2022/12/09 04:49:15;;;;;;;78.07;37.53;;;;;;;;;;5042758;28;20030;-77
2022/12/09 04:51:41;;;;;;;81.95;37.13;;;;;;;;;;5053997;28;20060;-77
2022/12/09 04:54:11;;;;;;;82.40;38.67;;;;;;;;;;5048668;28;20026;-77
2022/12/09 04:56:37;;;;;;;86.00;38.67;;;;;;;;;;5034732;28;20530;-77
2022/12/09 04:59:04;;;;;;;80.68;39.10;;;;;;;;;;5035908;28;20056;-76
2022/12/09 05:01:30;;;;;;;88.07;38.58;;;;;;;;;;5036588;28;20032;-77
2022/12/09 05:03:55;;;;;;;84.47;39.78;;;;;;;;;;5036107;28;20025;-77
2022/12/09 05:06:22;;;;;;;80.35;38.50;;;;;;;;;;5034576;28;20075;-77
2022/12/09 05:08:48;;;;;;;85.18;40.03;;;;;;;;;;5034992;28;20057;-79
2022/12/09 05:11:14;;;;;;;82.25;40.28;;;;;;;;;;5035137;28;20056;-76
2022/12/09 05:13:40;;;;;;;80.85;38.17;;;;;;;;;;5034408;28;20025;-78
2022/12/09 05:16:08;;;;;;;86.80;41.55;;;;;;;;;;5031744;28;20029;-75
2022/12/09 05:18:34;;;;;;;86.47;40.25;;;;;;;;;;5033606;28;20251;-75
2022/12/09 05:21:04;;;;;;;82.65;40.28;;;;;;;;;;5033331;28;20033;-74
2022/12/09 05:23:30;;;;;;;92.60;41.58;;;;;;;;;;5032782;28;20040;-75
2022/12/09 05:25:56;;;;;;;87.18;39.85;;;;;;;;;;5033069;28;20434;-75
2022/12/09 05:28:22;;;;;;;81.75;39.08;;;;;;;;;;5033264;28;20033;-75
2022/12/09 05:30:48;;;;;;;82.35;39.45;;;;;;;;;;5032993;28;20037;-74
2022/12/09 05:33:14;;;;;;;78.53;38.70;;;;;;;;;;5033697;28;20022;-75
2022/12/09 05:35:43;;;;;;;80.05;39.30;;;;;;;;;;5032971;28;20551;-75
2022/12/09 05:38:09;;;;;;;84.88;39.38;;;;;;;;;;5033158;28;20048;-75
2022/12/09 05:40:36;;;;;;;79.97;38.03;;;;;;;;;;5033048;28;20036;-77
2022/12/09 05:43:02;;;;;;;76.15;39.15;;;;;;;;;;5033417;28;20048;-75
2022/12/09 05:45:27;;;;;;;89.75;40.03;;;;;;;;;;5033150;28;20422;-76
2022/12/09 05:47:53;;;;;;;74.78;39.47;;;;;;;;;;5033278;28;20501;-78
2022/12/09 05:50:19;;;;;;;73.85;37.60;;;;;;;;;;5033300;28;20495;-76
2022/12/09 05:52:45;;;;;;;76.65;36.50;;;;;;;;;;5031683;28;20378;-77
2022/12/09 05:55:11;;;;;;;79.88;38.35;;;;;;;;;;5033246;28;20025;-77
2022/12/09 05:57:37;;;;;;;71.40;36.63;;;;;;;;;;5032906;28;20071;-76
2022/12/09 06:00:05;;;;;;;76.40;37.78;;;;;;;;;;5034737;28;20032;-76
2022/12/09 06:02:31;;;;;;;71.90;36.78;;;;;;;;;;5032622;28;20399;-76
2022/12/09 06:04:57;;;;;;;70.60;37.78;;;;;;;;;;5032571;28;20120;-78
2022/12/09 06:07:23;;;;;;;69.65;35.80;;;;;;;;;;5031945;28;20022;-76
2022/12/09 06:09:49;;;;;;;66.75;36.85;;;;;;;;;;5033489;28;20054;-76
2022/12/09 06:12:15;;;;;;;66.50;34.55;;;;;;;;;;5032926;28;20483;-76
2022/12/09 06:14:41;;;;;;;68.78;37.42;;;;;;;;;;5033822;28;20026;-77
2022/12/09 06:17:06;;;;;;;69.63;36.45;;;;;;;;;;5061360;23;20095;-75
2022/12/09 06:19:32;;;;;;;62.70;33.50;;;;;;;;;;5056056;28;20025;-75
2022/12/09 06:21:59;;;;;;;65.18;35.05;;;;;;;;;;5060181;28;20026;-74
2022/12/09 06:24:25;;;;;;;62.60;33.42;;;;;;;;;;5047175;28;20056;-75
2022/12/09 06:26:52;;;;;;;69.43;36.10;;;;;;;;;;5057717;28;20034;-75
2022/12/09 06:29:18;;;;;;;70.15;34.45;;;;;;;;;;5056520;28;20436;-76
2022/12/09 06:31:44;;;;;;;76.53;35.85;;;;;;;;;;5031569;28;20061;-76
2022/12/09 06:34:10;;;;;;;68.28;35.40;;;;;;;;;;5050672;28;20481;-77
2022/12/09 06:36:36;;;;;;;67.22;36.53;;;;;;;;;;5033000;28;20072;-75
2022/12/09 06:39:03;;;;;;;66.30;35.78;;;;;;;;;;5046231;28;20040;-77
2022/12/09 06:41:29;;;;;;;63.92;34.42;;;;;;;;;;5040937;28;20033;-77
2022/12/09 06:43:59;;;;;;;63.20;34.05;;;;;;;;;;5035301;28;20036;-77
2022/12/09 06:46:25;;;;;;;63.17;34.75;;;;;;;;;;5032749;28;20112;-79
2022/12/09 06:48:52;;;;;;;64.25;33.60;;;;;;;;;;5037756;28;20034;-76
2022/12/09 06:51:18;;;;;;;60.17;33.40;;;;;;;;;;5040466;28;20021;-75
2022/12/09 06:53:44;;;;;;;64.15;33.33;;;;;;;;;;5034919;28;20311;-74
2022/12/09 06:56:11;;;;;;;63.67;34.75;;;;;;;;;;5040877;28;20119;-74
2022/12/09 06:58:37;;;;;;;58.40;30.85;;;;;;;;;;5032542;28;20026;-75
2022/12/09 07:01:07;;;;;;;59.08;32.20;;;;;;;;;;5038289;28;20026;-75
2022/12/09 07:03:33;;;;;;;63.10;32.15;;;;;;;;;;5040547;28;20079;-75
2022/12/09 07:06:01;;;;;;;61.33;33.15;;;;;;;;;;5039811;28;20033;-75
2022/12/09 07:08:27;;;;;;;63.72;33.30;;;;;;;;;;5040244;28;20425;-75
2022/12/09 07:10:53;;;;;;;62.28;31.50;;;;;;;;;;5043261;28;20026;-76
2022/12/09 07:13:19;;;;;;;59.38;31.08;;;;;;;;;;5041591;28;20026;-76
2022/12/09 07:15:45;;;;;;;56.55;30.50;;;;;;;;;;5039326;28;20025;-78
2022/12/09 07:18:11;;;;;;;52.85;29.48;;;;;;;;;;5051264;28;20037;-78
2022/12/09 07:20:37;;;;;;;56.17;30.40;;;;;;;;;;5049623;28;20041;-76
2022/12/09 07:23:03;;;;;;;52.65;28.60;;;;;;;;;;5046909;28;20029;-78
2022/12/09 07:25:30;;;;;;;54.80;28.85;;;;;;;;;;5056973;28;20035;-78
2022/12/09 07:27:56;;;;;;;59.63;29.77;;;;;;;;;;5050207;28;20112;-77
2022/12/09 07:30:22;;;;;;;55.78;28.60;;;;;;;;;;5049064;28;20034;-76
2022/12/09 07:32:48;;;;;;;53.35;29.35;;;;;;;;;;5043183;28;20093;-78
2022/12/09 07:35:14;;;;;;;49.58;27.80;;;;;;;;;;5045390;28;20021;-76
2022/12/09 07:37:40;;;;;;;53.08;25.83;;;;;;;;;;5046068;28;20028;-76
2022/12/09 07:40:06;;;;;;;51.40;25.25;;;;;;;;;;5046844;28;20029;-78
2022/12/09 07:42:32;;;;;;;48.25;25.42;;;;;;;;;;5045304;28;20025;-76
2022/12/09 07:44:58;;;;;;;46.80;25.73;;;;;;;;;;5040035;28;20386;-75
2022/12/09 07:47:25;;;;;;;51.83;26.33;;;;;;;;;;5040602;28;20132;-77
2022/12/09 07:49:51;;;;;;;46.15;24.85;;;;;;;;;;5041951;28;20053;-76
2022/12/09 07:52:17;;;;;;;46.65;23.35;;;;;;;;;;5040269;28;20052;-78
2022/12/09 07:54:43;;;;;;;43.22;23.67;;;;;;;;;;5041163;28;20018;-78
2022/12/09 07:57:09;;;;;;;45.03;23.00;;;;;;;;;;5039809;28;20060;-78
2022/12/09 07:59:35;;;;;;;40.55;22.42;;;;;;;;;;5039710;28;20041;-78
2022/12/09 08:02:02;;;;;;;54.10;24.38;;;;;;;;;;5041247;28;20025;-77
2022/12/09 08:04:29;;;;;;;45.53;23.60;;;;;;;;;;5044063;28;20030;-75
2022/12/09 08:06:55;;;;;;;46.40;22.95;;;;;;;;;;5049558;28;20025;-78
2022/12/09 08:09:21;;;;;;;41.22;22.15;;;;;;;;;;5048921;28;20068;-78
2022/12/09 08:11:47;;;;;;;47.35;26.20;;;;;;;;;;5044831;28;20029;-76
2022/12/09 08:14:14;;;;;;;43.85;23.50;;;;;;;;;;5046954;28;20081;-80
2022/12/09 08:16:40;;;;;;;71.05;32.58;;;;;;;;;;5046774;28;20033;-75
2022/12/09 08:19:07;;;;;;;56.72;26.35;;;;;;;;;;5049370;28;20041;-77
2022/12/09 08:21:33;;;;;;;43.45;24.08;;;;;;;;;;5047690;28;20040;-77
2022/12/09 08:24:00;;;;;;;49.65;24.85;;;;;;;;;;5052176;28;20068;-76
2022/12/09 08:26:27;;;;;;;46.58;24.42;;;;;;;;;;5053847;28;20021;-77
2022/12/09 08:28:53;;;;;;;45.33;23.17;;;;;;;;;;5055421;28;20041;-80
2022/12/09 08:31:20;;;;;;;44.88;24.05;;;;;;;;;;5054139;28;20025;-78
2022/12/09 08:33:47;;;;;;;45.22;24.30;;;;;;;;;;5051175;28;20025;-78
2022/12/09 08:36:15;;;;;;;47.22;23.45;;;;;;;;;;5043442;28;20032;-77
2022/12/09 08:38:41;;;;;;;50.95;25.42;;;;;;;;;;5042491;28;20035;-78
2022/12/09 08:41:11;;;;;;;56.15;25.65;;;;;;;;;;5041934;28;20120;-77
2022/12/09 08:43:40;;;;;;;49.00;26.13;;;;;;;;;;5042269;28;20039;-81
2022/12/09 08:46:06;;;;;;;48.92;24.92;;;;;;;;;;5041657;28;20029;-78
2022/12/09 08:48:35;;;;;;;51.38;26.27;;;;;;;;;;5042625;28;20084;-78
2022/12/09 08:51:01;;;;;;;51.72;27.35;;;;;;;;;;5042337;28;20032;-77
2022/12/09 08:53:26;;;;;;;53.10;26.70;;;;;;;;;;5041679;28;20013;-79
2022/12/09 08:55:52;;;;;;;56.13;28.10;;;;;;;;;;5041372;28;20033;-77
2022/12/09 08:58:19;;;;;;;57.45;28.00;;;;;;;;;;5040716;28;20059;-78
2022/12/09 09:00:45;;;;;;;51.28;27.58;;;;;;;;;;5041274;28;20022;-79
2022/12/09 09:03:10;;;;;;;60.35;29.25;;;;;;;;;;5041643;28;20030;-78
2022/12/09 09:05:36;;;;;;;50.90;27.63;;;;;;;;;;5038862;28;20363;-78
2022/12/09 09:08:02;;;;;;;64.93;33.42;;;;;;;;;;5040005;28;20029;-76
2022/12/09 09:10:29;;;;;;;56.65;29.23;;;;;;;;;;5041830;28;20030;-77
2022/12/09 09:12:55;;;;;;;54.35;28.75;;;;;;;;;;5040473;28;20353;-78
2022/12/09 09:15:21;;;;;;;61.45;33.20;;;;;;;;;;5041026;28;20056;-78
2022/12/09 09:17:47;;;;;;;58.58;29.15;;;;;;;;;;5041145;28;20040;-77
2022/12/09 09:20:14;;;;;;;57.95;28.95;;;;;;;;;;5039414;28;20469;-79
2022/12/09 09:22:40;;;;;;;51.67;28.05;;;;;;;;;;5041700;28;20029;-78
2022/12/09 09:25:06;;;;;;;52.88;28.27;;;;;;;;;;5046164;28;20031;-77
2022/12/09 09:27:33;;;;;;;52.28;28.67;;;;;;;;;;5046090;28;20061;-78
2022/12/09 09:29:59;;;;;;;53.05;28.30;;;;;;;;;;5047632;28;20021;-78
2022/12/09 09:32:25;;;;;;;64.22;31.10;;;;;;;;;;5050141;28;20552;-79
2022/12/09 09:34:52;;;;;;;60.40;30.63;;;;;;;;;;5047838;28;20057;-79
2022/12/09 09:37:18;;;;;;;57.70;29.10;;;;;;;;;;5047994;28;20032;-78
2022/12/09 09:39:44;;;;;;;51.17;28.17;;;;;;;;;;5046606;28;20116;-77
2022/12/09 09:42:18;;;;;;;53.90;28.10;;;;;;;;;;5041589;28;20409;-78
2022/12/09 09:44:45;;;;;;;55.53;28.52;;;;;;;;;;5039548;28;20076;-77
2022/12/09 09:47:16;;;;;;;57.28;30.05;;;;;;;;;;5039723;28;20034;-77
2022/12/09 09:49:48;;;;;;;56.72;29.63;;;;;;;;;;5043761;28;20104;-78
2022/12/09 09:52:19;;;;;;;51.88;28.20;;;;;;;;;;5041882;28;20029;-77
2022/12/09 09:54:45;;;;;;;55.42;28.30;;;;;;;;;;5045009;28;20030;-78
2022/12/09 09:57:20;;;;;;;57.90;30.75;;;;;;;;;;5046999;28;20010;-77
2022/12/09 09:59:48;;;;;;;57.47;30.52;;;;;;;;;;5052120;28;20005;-76
2022/12/09 10:02:22;;;;;;;55.30;27.60;;;;;;;;;;5042932;28;20393;-77
2022/12/09 10:05:03;;;;;;;57.08;28.77;;;;;;;;;;5041001;28;20056;-78
2022/12/09 10:07:41;;;;;;;58.92;28.75;;;;;;;;;;5040021;28;20026;-78
2022/12/09 10:10:16;;;;;;;57.88;29.63;;;;;;;;;;5039868;28;20092;-77
2022/12/09 10:12:42;;;;;;;53.08;28.42;;;;;;;;;;5040852;28;20035;-78
2022/12/09 10:15:17;;;;;;;57.25;27.73;;;;;;;;;;5041165;28;20041;-79
2022/12/09 10:17:54;;;;;;;56.75;28.70;;;;;;;;;;5036582;28;20033;-77
2022/12/09 10:20:22;;;;;;;64.70;30.50;;;;;;;;;;5037679;28;20079;-77
2022/12/09 10:23:05;;;;;;;53.70;29.77;;;;;;;;;;5039039;28;20060;-79
2022/12/09 10:25:42;;;;;;;52.85;27.55;;;;;;;;;;5039929;28;20413;-78
2022/12/09 10:28:19;;;;;;;51.65;27.55;;;;;;;;;;5039266;28;20106;-77
2022/12/09 10:30:45;;;;;;;58.85;28.65;;;;;;;;;;5041009;28;20501;-77
2022/12/09 10:33:12;;;;;;;56.67;29.85;;;;;;;;;;5041825;28;20022;-77
2022/12/09 10:35:38;;;;;;;52.40;28.05;;;;;;;;;;5050783;28;20081;-78
2022/12/09 10:38:06;;;;;;;55.95;28.23;;;;;;;;;;5055767;28;20025;-76
2022/12/09 10:40:44;;;;;;;55.85;27.35;;;;;;;;;;5049785;28;20025;-78
2022/12/09 10:43:42;;;;;;;55.13;28.90;;;;;;;;;;5039667;28;20030;-79
2022/12/09 10:46:10;;;;;;;52.85;26.13;;;;;;;;;;5040179;28;20056;-76
2022/12/09 10:48:40;;;;;;;51.85;27.38;;;;;;;;;;5039821;28;20030;-78
2022/12/09 10:51:16;;;;;;;46.75;25.90;;;;;;;;;;5040305;28;20025;-77
2022/12/09 10:53:44;;;;;;;52.53;27.20;;;;;;;;;;5039709;28;20029;-77
2022/12/09 10:56:16;;;;;;;55.38;27.98;;;;;;;;;;5040098;28;20036;-78
2022/12/09 10:58:42;;;;;;;49.35;25.83;;;;;;;;;;5046211;28;20085;-81
2022/12/09 11:01:10;;;;;;;58.75;29.17;;;;;;;;;;5048451;28;20029;-80
2022/12/09 11:03:39;;;;;;;50.03;26.55;;;;;;;;;;5047048;28;20052;-79
2022/12/09 11:06:14;;;;;;;54.38;26.65;;;;;;;;;;5048577;28;20025;-78
2022/12/09 11:08:41;;;;;;;48.05;24.83;;;;;;;;;;5052300;28;20029;-78
2022/12/09 11:11:07;;;;;;;49.80;24.83;;;;;;;;;;5057158;28;20098;-78
2022/12/09 11:13:37;;;;;;;46.17;23.98;;;;;;;;;;5056858;28;20057;-80
2022/12/09 11:16:06;;;;;;;49.10;24.73;;;;;;;;;;5053835;28;20042;-79
2022/12/09 11:18:36;;;;;;;45.65;23.08;;;;;;;;;;5046554;28;20055;-77
2022/12/09 11:21:03;;;;;;;50.97;22.15;;;;;;;;;;5049766;28;20021;-77
2022/12/09 11:23:29;;;;;;;39.60;20.38;;;;;;;;;;5042787;28;20025;-77
2022/12/09 11:25:57;;;;;;;43.25;21.02;;;;;;;;;;5044605;28;20072;-79
2022/12/09 11:28:25;;;;;;;37.22;20.52;;;;;;;;;;5046571;28;20021;-77
2022/12/09 11:31:00;;;;;;;36.90;19.33;;;;;;;;;;5052711;28;20025;-77
2022/12/09 11:33:30;;;;;;;34.03;18.40;;;;;;;;;;5052524;28;20140;-76
2022/12/09 11:36:00;;;;;;;39.88;18.48;;;;;;;;;;5053534;28;20077;-77
2022/12/09 11:38:32;;;;;;;33.33;17.35;;;;;;;;;;5054850;28;20028;-79
2022/12/09 11:44:02;;;;;;;41.15;19.67;;;;;;;;;;5059252;28;20039;-78
2022/12/09 11:46:30;;;;;;;37.97;16.90;;;;;;;;;;5040718;28;20061;-77
2022/12/09 11:48:58;;;;;;;55.47;27.65;;;;;;;;;;5041227;28;20036;-78
2022/12/09 11:51:34;;;;;;;31.70;16.00;;;;;;;;;;5039326;28;20032;-77
2022/12/09 11:54:03;;;;;;;28.38;15.45;;;;;;;;;;5040348;28;20032;-77
2022/12/09 11:56:29;;;;;;;24.42;13.88;;;;;;;;;;5040534;28;20025;-77
2022/12/09 11:59:01;;;;;;;32.95;15.75;;;;;;;;;;5041413;28;20029;-77
2022/12/09 12:01:41;;;;;;;26.75;15.82;;;;;;;;;;5039969;28;20052;-77
2022/12/09 12:04:09;;;;;;;32.83;15.50;;;;;;;;;;5045140;28;20117;-78
2022/12/09 12:06:42;;;;;;;30.10;16.10;;;;;;;;;;5048203;28;20036;-79
2022/12/09 12:09:14;;;;;;;33.65;16.08;;;;;;;;;;5050852;28;20025;-79
2022/12/09 12:11:43;;;;;;;27.42;14.93;;;;;;;;;;5049611;28;20026;-78
2022/12/09 12:14:15;;;;;;;24.75;14.55;;;;;;;;;;5048691;28;20320;-78
2022/12/09 12:17:02;;;;;;;23.05;13.77;;;;;;;;;;5066469;22;20060;-74
2022/12/09 12:19:28;;;;;;;25.63;14.50;;;;;;;;;;5034450;28;20041;-74
2022/12/09 12:22:10;;;;;;;29.08;15.05;;;;;;;;;;5034838;28;20393;-74
2022/12/09 12:24:36;;;;;;;25.05;14.90;;;;;;;;;;5036528;28;20033;-74
2022/12/09 12:27:14;;;;;;;22.35;13.27;;;;;;;;;;5034610;28;20021;-74
2022/12/09 12:29:55;;;;;;;26.08;13.50;;;;;;;;;;5041242;28;20414;-74
2022/12/09 12:32:30;;;;;;;25.08;13.88;;;;;;;;;;5037511;28;20021;-74
2022/12/09 12:34:56;;;;;;;;;;;;;;;;;;5040005;28;20391;-74
2022/12/09 12:37:24;;;;;;;27.08;14.55;;;;;;;;;;5034675;28;19980;-74
2022/12/09 12:39:56;;;;;;;23.48;13.63;;;;;;;;;;5035270;28;20088;-83
2022/12/09 12:46:15;;;;;;;23.98;13.13;;;;;;;;;;5033348;28;20526;-74
2022/12/09 12:48:26;;;;;;;22.40;13.30;;;;;;;;;;5036765;28;20036;-75
2022/12/09 12:51:01;;;;;;;30.58;17.20;;;;;;;;;;5036213;28;20446;-75
2022/12/09 12:53:46;;;;;;;22.75;13.55;;;;;;;;;;5045932;28;20272;-74
2022/12/09 12:56:16;;;;;;;21.67;13.07;;;;;;;;;;5037688;28;20022;-74
2022/12/09 12:58:46;;;;;;;23.23;14.73;;;;;;;;;;5040970;28;20037;-75
2022/12/09 13:01:33;;;;;;;20.92;13.50;;;;;;;;;;5040054;28;20036;-74
2022/12/09 13:04:18;;;;;;;26.15;14.82;;;;;;;;;;5036708;28;20025;-75
2022/12/09 13:07:09;;;;;;;25.25;14.98;;;;;;;;;;5033855;28;20056;-76
2022/12/09 13:10:13;;;;;;;25.33;14.77;;;;;;;;;;5034788;28;20025;-76
2022/12/09 13:12:54;;;;;;;28.25;15.02;;;;;;;;;;5015201;28;20057;-75
2022/12/09 13:15:41;;;;;;;40.83;23.60;;;;;;;;;;5012950;28;20034;-77
2022/12/09 13:18:11;;;;;;;24.95;14.75;;;;;;;;;;5023947;28;20041;-77
2022/12/09 13:20:50;;;;;;;26.45;15.15;;;;;;;;;;5037408;28;20029;-76
2022/12/09 13:23:43;;;;;;;28.98;16.30;;;;;;;;;;5041482;28;20025;-77
2022/12/09 13:26:33;;;;;;;28.58;15.32;;;;;;;;;;5037941;28;20425;-75
2022/12/09 13:29:02;;;;;;;29.27;17.35;;;;;;;;;;5039896;28;20032;-77
2022/12/09 13:31:30;;;;;;;29.05;16.88;;;;;;;;;;5032539;28;20022;-75
2022/12/09 13:34:03;;;;;;;33.70;17.50;;;;;;;;;;5033270;28;20035;-75
2022/12/09 13:36:29;;;;;;;29.88;17.40;;;;;;;;;;5039164;28;20045;-77
2022/12/09 13:38:55;;;;;;;34.38;18.42;;;;;;;;;;5036184;28;20037;-73
2022/12/09 13:42:51;;;;;;;29.17;18.58;;;;;;;;;;5032721;28;20032;-74
2022/12/09 13:44:17;;;;;;;33.88;18.52;;;;;;;;;;5034218;28;20041;-74
2022/12/09 13:46:44;;;;;;;29.00;16.98;;;;;;;;;;5031839;28;20025;-72
2022/12/09 13:49:13;;;;;;;27.92;16.77;;;;;;;;;;5034455;28;20021;-76
2022/12/09 13:51:47;;;;;;;29.40;17.25;;;;;;;;;;5038662;28;20021;-75
2022/12/09 13:54:15;;;;;;;32.42;17.40;;;;;;;;;;5033256;28;20034;-75
2022/12/09 13:56:42;;;;;;;31.85;17.65;;;;;;;;;;5032799;28;20435;-75
2022/12/09 13:59:27;;;;;;;37.05;18.85;;;;;;;;;;5034537;28;20022;-75
2022/12/09 14:02:12;;;;;;;32.90;18.30;;;;;;;;;;5029987;28;20491;-75
2022/12/09 14:04:47;;;;;;;39.40;20.45;;;;;;;;;;5031776;28;20409;-74
2022/12/09 14:07:13;;;;;;;38.15;19.85;;;;;;;;;;5032718;28;20025;-75
2022/12/09 14:09:48;;;;;;;35.63;19.98;;;;;;;;;;5033209;28;20077;-76
2022/12/09 14:12:35;;;;;;;41.30;20.92;;;;;;;;;;5032818;28;20026;-76
2022/12/09 14:15:01;;;;;;;44.53;20.27;;;;;;;;;;5033869;28;20030;-75
2022/12/09 14:17:27;;;;;;;45.72;21.63;;;;;;;;;;5032835;28;20049;-76
2022/12/09 14:19:56;;;;;;;40.72;20.92;;;;;;;;;;5033854;28;20033;-76
2022/12/09 14:22:22;;;;;;;43.67;20.80;;;;;;;;;;5033471;28;20429;-75
2022/12/09 14:24:49;;;;;;;35.30;20.25;;;;;;;;;;5032798;28;20155;-75
2022/12/09 14:27:18;;;;;;;38.22;19.40;;;;;;;;;;5032329;28;20028;-74
2022/12/09 14:29:47;;;;;;;43.58;22.25;;;;;;;;;;5032614;28;20030;-76
2022/12/09 14:32:19;;;;;;;40.25;20.92;;;;;;;;;;5035295;28;20021;-75